<?xml version='1.0' encoding='UTF-8'?><gpx version="1.1" creator="JPX - https://github.com/jenetics/jpx" xmlns="http://www.topografix.com/GPX/1/1"><trk><trkseg><trkpt lat="42.2957902" lon="13.4953763"><ele>568.0</ele><time>2026-04-26T08:11:54.542Z</time></trkpt><trkpt lat="42.2957347" lon="13.4954418"><ele>568.0</ele><time>2026-04-26T08:11:58.55Z</time></trkpt><trkpt lat="42.2956534" lon="13.4954881"><ele>568.0</ele><time>2026-04-26T08:12:03.547Z</time></trkpt><trkpt lat="42.2955944" lon="13.4955234"><ele>568.0</ele><time>2026-04-26T08:12:06.548Z</time></trkpt><trkpt lat="42.2955397" lon="13.4955714"><ele>568.0</ele><time>2026-04-26T08:12:09.55Z</time></trkpt><trkpt lat="42.2954842" lon="13.4956252"><ele>568.0</ele><time>2026-04-26T08:12:12.558Z</time></trkpt><trkpt lat="42.2954276" lon="13.4957058"><ele>568.0</ele><time>2026-04-26T08:12:16.547Z</time></trkpt><trkpt lat="42.2953844" lon="13.4957711"><ele>568.0</ele><time>2026-04-26T08:12:19.581Z</time></trkpt><trkpt lat="42.2953337" lon="13.4958463"><ele>568.0</ele><time>2026-04-26T08:12:23.55Z</time></trkpt><trkpt lat="42.2952872" lon="13.4959081"><ele>568.0</ele><time>2026-04-26T08:12:26.553Z</time></trkpt><trkpt lat="42.2952407" lon="13.4959688"><ele>568.0</ele><time>2026-04-26T08:12:29.542Z</time></trkpt><trkpt lat="42.2951749" lon="13.4960318"><ele>568.0</ele><time>2026-04-26T08:12:33.598Z</time></trkpt><trkpt lat="42.2951162" lon="13.4960923"><ele>568.0</ele><time>2026-04-26T08:12:37.575Z</time></trkpt><trkpt lat="42.2950535" lon="13.4961665"><ele>568.0</ele><time>2026-04-26T08:12:41.572Z</time></trkpt><trkpt lat="42.2950046" lon="13.4962275"><ele>568.0</ele><time>2026-04-26T08:12:44.576Z</time></trkpt><trkpt lat="42.2949544" lon="13.4962905"><ele>568.0</ele><time>2026-04-26T08:12:47.605Z</time></trkpt><trkpt lat="42.2948943" lon="13.496365"><ele>568.0</ele><time>2026-04-26T08:12:51.496Z</time></trkpt><trkpt lat="42.294846" lon="13.496423"><ele>568.0</ele><time>2026-04-26T08:12:54.609Z</time></trkpt><trkpt lat="42.2947843" lon="13.4964941"><ele>568.0</ele><time>2026-04-26T08:12:58.595Z</time></trkpt><trkpt lat="42.2947344" lon="13.4965462"><ele>568.0</ele><time>2026-04-26T08:13:01.572Z</time></trkpt><trkpt lat="42.2946823" lon="13.496601"><ele>568.0</ele><time>2026-04-26T08:13:04.608Z</time></trkpt><trkpt lat="42.2946185" lon="13.4966702"><ele>568.0</ele><time>2026-04-26T08:13:08.493Z</time></trkpt><trkpt lat="42.2945581" lon="13.4967408"><ele>568.0</ele><time>2026-04-26T08:13:12.561Z</time></trkpt><trkpt lat="42.2944967" lon="13.4968072"><ele>568.0</ele><time>2026-04-26T08:13:16.549Z</time></trkpt><trkpt lat="42.2944367" lon="13.4968666"><ele>568.0</ele><time>2026-04-26T08:13:20.6Z</time></trkpt><trkpt lat="42.2943497" lon="13.4969306"><ele>568.0</ele><time>2026-04-26T08:14:40.702Z</time></trkpt><trkpt lat="42.2942579" lon="13.4970503"><ele>568.0</ele><time>2026-04-26T08:14:44.546Z</time></trkpt><trkpt lat="42.2941794" lon="13.4971301"><ele>568.0</ele><time>2026-04-26T08:14:47.559Z</time></trkpt><trkpt lat="42.2941286" lon="13.4971849"><ele>568.0</ele><time>2026-04-26T08:14:49.549Z</time></trkpt><trkpt lat="42.2940731" lon="13.4972418"><ele>568.0</ele><time>2026-04-26T08:14:51.562Z</time></trkpt><trkpt lat="42.294014" lon="13.49729"><ele>568.0</ele><time>2026-04-26T08:14:53.556Z</time></trkpt><trkpt lat="42.2939596" lon="13.497342"><ele>568.0</ele><time>2026-04-26T08:14:55.523Z</time></trkpt><trkpt lat="42.2939121" lon="13.4973998"><ele>568.0</ele><time>2026-04-26T08:14:57.548Z</time></trkpt><trkpt lat="42.2938366" lon="13.4974779"><ele>568.0</ele><time>2026-04-26T08:15:00.572Z</time></trkpt><trkpt lat="42.2937683" lon="13.4975525"><ele>568.0</ele><time>2026-04-26T08:15:03.513Z</time></trkpt><trkpt lat="42.2937123" lon="13.4976113"><ele>568.0</ele><time>2026-04-26T08:15:05.545Z</time></trkpt><trkpt lat="42.2936476" lon="13.4976785"><ele>568.0</ele><time>2026-04-26T08:15:08.604Z</time></trkpt><trkpt lat="42.2935803" lon="13.4977451"><ele>568.0</ele><time>2026-04-26T08:15:11.489Z</time></trkpt><trkpt lat="42.2935145" lon="13.4978336"><ele>568.0</ele><time>2026-04-26T08:15:14.768Z</time></trkpt><trkpt lat="42.2934665" lon="13.4979085"><ele>567.8333333333334</ele><time>2026-04-26T08:15:17.31Z</time></trkpt><trkpt lat="42.2934094" lon="13.4980063"><ele>567.6666666666667</ele><time>2026-04-26T08:15:20.561Z</time></trkpt><trkpt lat="42.2933627" lon="13.4981036"><ele>567.5</ele><time>2026-04-26T08:15:23.569Z</time></trkpt><trkpt lat="42.2933218" lon="13.4981735"><ele>567.3333333333334</ele><time>2026-04-26T08:15:25.548Z</time></trkpt><trkpt lat="42.2932788" lon="13.498256"><ele>567.1666666666666</ele><time>2026-04-26T08:15:28.566Z</time></trkpt><trkpt lat="42.29323" lon="13.4983464"><ele>567.0</ele><time>2026-04-26T08:15:31.526Z</time></trkpt><trkpt lat="42.2931673" lon="13.4984314"><ele>567.0</ele><time>2026-04-26T08:15:34.547Z</time></trkpt><trkpt lat="42.2931119" lon="13.49852"><ele>567.0</ele><time>2026-04-26T08:15:37.605Z</time></trkpt><trkpt lat="42.293065" lon="13.4986079"><ele>567.0</ele><time>2026-04-26T08:15:40.573Z</time></trkpt><trkpt lat="42.2930132" lon="13.4986997"><ele>567.0</ele><time>2026-04-26T08:15:43.631Z</time></trkpt><trkpt lat="42.2929674" lon="13.4987822"><ele>567.0</ele><time>2026-04-26T08:15:46.581Z</time></trkpt><trkpt lat="42.292911" lon="13.4988571"><ele>567.0</ele><time>2026-04-26T08:15:49.531Z</time></trkpt><trkpt lat="42.2928647" lon="13.4989456"><ele>567.3333333333334</ele><time>2026-04-26T08:15:52.559Z</time></trkpt><trkpt lat="42.2928227" lon="13.4990365"><ele>567.6666666666666</ele><time>2026-04-26T08:15:55.581Z</time></trkpt><trkpt lat="42.2927714" lon="13.4991157"><ele>568.0</ele><time>2026-04-26T08:15:58.589Z</time></trkpt><trkpt lat="42.2927239" lon="13.4992034"><ele>568.3333333333333</ele><time>2026-04-26T08:16:01.567Z</time></trkpt><trkpt lat="42.2926764" lon="13.499293"><ele>568.6666666666666</ele><time>2026-04-26T08:16:04.555Z</time></trkpt><trkpt lat="42.2926267" lon="13.4993788"><ele>569.0</ele><time>2026-04-26T08:16:07.565Z</time></trkpt><trkpt lat="42.292577" lon="13.4994629"><ele>569.0</ele><time>2026-04-26T08:16:10.545Z</time></trkpt><trkpt lat="42.2925288" lon="13.4995499"><ele>569.0</ele><time>2026-04-26T08:16:13.567Z</time></trkpt><trkpt lat="42.2924879" lon="13.4996378"><ele>569.0</ele><time>2026-04-26T08:16:16.57Z</time></trkpt><trkpt lat="42.2924518" lon="13.4997289"><ele>569.0</ele><time>2026-04-26T08:16:19.576Z</time></trkpt><trkpt lat="42.2924069" lon="13.4998131"><ele>569.0</ele><time>2026-04-26T08:16:22.561Z</time></trkpt><trkpt lat="42.2923655" lon="13.4999016"><ele>569.0</ele><time>2026-04-26T08:16:25.61Z</time></trkpt><trkpt lat="42.292315" lon="13.4999753"><ele>569.3333333333333</ele><time>2026-04-26T08:16:28.572Z</time></trkpt><trkpt lat="42.2922497" lon="13.5000492"><ele>569.6666666666666</ele><time>2026-04-26T08:16:31.676Z</time></trkpt><trkpt lat="42.292199" lon="13.5001255"><ele>570.0</ele><time>2026-04-26T08:16:34.605Z</time></trkpt><trkpt lat="42.2921539" lon="13.5002081"><ele>570.3333333333334</ele><time>2026-04-26T08:16:37.57Z</time></trkpt><trkpt lat="42.292102" lon="13.500291"><ele>570.6666666666667</ele><time>2026-04-26T08:16:40.564Z</time></trkpt><trkpt lat="42.2920465" lon="13.5003795"><ele>571.0</ele><time>2026-04-26T08:16:43.66Z</time></trkpt><trkpt lat="42.2920041" lon="13.5004628"><ele>571.0</ele><time>2026-04-26T08:16:46.554Z</time></trkpt><trkpt lat="42.2919567" lon="13.5005429"><ele>571.0</ele><time>2026-04-26T08:16:49.552Z</time></trkpt><trkpt lat="42.2919073" lon="13.5006297"><ele>571.0</ele><time>2026-04-26T08:16:52.62Z</time></trkpt><trkpt lat="42.2918632" lon="13.5007092"><ele>571.0</ele><time>2026-04-26T08:16:55.569Z</time></trkpt><trkpt lat="42.2918162" lon="13.5007892"><ele>571.0</ele><time>2026-04-26T08:16:58.562Z</time></trkpt><trkpt lat="42.2917679" lon="13.5008739"><ele>571.0</ele><time>2026-04-26T08:17:01.585Z</time></trkpt><trkpt lat="42.2917063" lon="13.5009425"><ele>571.0</ele><time>2026-04-26T08:17:04.578Z</time></trkpt><trkpt lat="42.2916462" lon="13.5010082"><ele>571.0</ele><time>2026-04-26T08:17:07.552Z</time></trkpt><trkpt lat="42.2915884" lon="13.5010745"><ele>571.0</ele><time>2026-04-26T08:17:10.504Z</time></trkpt><trkpt lat="42.2915277" lon="13.501153"><ele>571.0</ele><time>2026-04-26T08:17:13.626Z</time></trkpt><trkpt lat="42.2914923" lon="13.5012451"><ele>571.0</ele><time>2026-04-26T08:17:16.55Z</time></trkpt><trkpt lat="42.2914504" lon="13.5013384"><ele>571.0</ele><time>2026-04-26T08:17:19.573Z</time></trkpt><trkpt lat="42.2914018" lon="13.5014381"><ele>570.8333333333334</ele><time>2026-04-26T08:17:22.723Z</time></trkpt><trkpt lat="42.2913574" lon="13.5015223"><ele>570.6666666666667</ele><time>2026-04-26T08:17:25.647Z</time></trkpt><trkpt lat="42.2913131" lon="13.5016038"><ele>570.5</ele><time>2026-04-26T08:17:28.57Z</time></trkpt><trkpt lat="42.2912649" lon="13.5016918"><ele>570.3333333333334</ele><time>2026-04-26T08:17:31.574Z</time></trkpt><trkpt lat="42.2912191" lon="13.5017818"><ele>570.1666666666666</ele><time>2026-04-26T08:17:34.616Z</time></trkpt><trkpt lat="42.2911696" lon="13.5018672"><ele>570.0</ele><time>2026-04-26T08:17:37.616Z</time></trkpt><trkpt lat="42.2911128" lon="13.5019499"><ele>570.0</ele><time>2026-04-26T08:17:40.596Z</time></trkpt><trkpt lat="42.2910754" lon="13.5020197"><ele>570.0</ele><time>2026-04-26T08:17:42.493Z</time></trkpt><trkpt lat="42.2910313" lon="13.5021052"><ele>570.0</ele><time>2026-04-26T08:17:45.598Z</time></trkpt><trkpt lat="42.290983" lon="13.5021878"><ele>570.0</ele><time>2026-04-26T08:17:48.566Z</time></trkpt><trkpt lat="42.2909279" lon="13.5022641"><ele>570.0</ele><time>2026-04-26T08:17:51.549Z</time></trkpt><trkpt lat="42.2908766" lon="13.5023548"><ele>570.0</ele><time>2026-04-26T08:17:54.56Z</time></trkpt><trkpt lat="42.29083" lon="13.502451"><ele>570.0</ele><time>2026-04-26T08:17:57.604Z</time></trkpt><trkpt lat="42.2907842" lon="13.5025449"><ele>570.0</ele><time>2026-04-26T08:18:00.611Z</time></trkpt><trkpt lat="42.2907301" lon="13.5026246"><ele>570.0</ele><time>2026-04-26T08:18:03.552Z</time></trkpt><trkpt lat="42.290678" lon="13.5027134"><ele>570.0</ele><time>2026-04-26T08:18:06.557Z</time></trkpt><trkpt lat="42.2906055" lon="13.5028116"><ele>570.0</ele><time>2026-04-26T08:18:10.211Z</time></trkpt><trkpt lat="42.2905591" lon="13.5028787"><ele>570.0</ele><time>2026-04-26T08:18:12.644Z</time></trkpt><trkpt lat="42.2905197" lon="13.5029701"><ele>570.0</ele><time>2026-04-26T08:18:15.552Z</time></trkpt><trkpt lat="42.2904949" lon="13.5030822"><ele>570.0</ele><time>2026-04-26T08:18:18.573Z</time></trkpt><trkpt lat="42.2904815" lon="13.5031949"><ele>570.0</ele><time>2026-04-26T08:18:21.609Z</time></trkpt><trkpt lat="42.2904904" lon="13.5033027"><ele>570.0</ele><time>2026-04-26T08:18:24.575Z</time></trkpt><trkpt lat="42.2905189" lon="13.5034064"><ele>570.0</ele><time>2026-04-26T08:18:27.55Z</time></trkpt><trkpt lat="42.2905658" lon="13.5034999"><ele>570.0</ele><time>2026-04-26T08:18:30.56Z</time></trkpt><trkpt lat="42.2906087" lon="13.5035921"><ele>570.0</ele><time>2026-04-26T08:18:33.617Z</time></trkpt><trkpt lat="42.2906536" lon="13.5036772"><ele>570.0</ele><time>2026-04-26T08:18:36.566Z</time></trkpt><trkpt lat="42.2906894" lon="13.5037701"><ele>570.0</ele><time>2026-04-26T08:18:39.577Z</time></trkpt><trkpt lat="42.2906852" lon="13.5038804"><ele>570.0</ele><time>2026-04-26T08:18:42.621Z</time></trkpt><trkpt lat="42.2906217" lon="13.5039661"><ele>570.0</ele><time>2026-04-26T08:18:45.607Z</time></trkpt><trkpt lat="42.2905572" lon="13.5040455"><ele>570.0</ele><time>2026-04-26T08:18:48.58Z</time></trkpt><trkpt lat="42.2904984" lon="13.5041288"><ele>570.0</ele><time>2026-04-26T08:18:51.549Z</time></trkpt><trkpt lat="42.2904411" lon="13.5042085"><ele>570.0</ele><time>2026-04-26T08:18:54.585Z</time></trkpt><trkpt lat="42.290389" lon="13.5042939"><ele>570.0</ele><time>2026-04-26T08:18:57.549Z</time></trkpt><trkpt lat="42.2903339" lon="13.5043804"><ele>570.0</ele><time>2026-04-26T08:19:00.57Z</time></trkpt><trkpt lat="42.2902776" lon="13.5044734"><ele>570.0</ele><time>2026-04-26T08:19:03.594Z</time></trkpt><trkpt lat="42.2902314" lon="13.5045572"><ele>570.0</ele><time>2026-04-26T08:19:06.572Z</time></trkpt><trkpt lat="42.2901913" lon="13.5046498"><ele>570.0</ele><time>2026-04-26T08:19:09.574Z</time></trkpt><trkpt lat="42.2901548" lon="13.5047404"><ele>570.0</ele><time>2026-04-26T08:19:12.576Z</time></trkpt><trkpt lat="42.2901187" lon="13.5048359"><ele>570.0</ele><time>2026-04-26T08:19:15.569Z</time></trkpt><trkpt lat="42.290083" lon="13.504926"><ele>570.0</ele><time>2026-04-26T08:19:18.568Z</time></trkpt><trkpt lat="42.2900528" lon="13.5050214"><ele>570.0</ele><time>2026-04-26T08:19:21.561Z</time></trkpt><trkpt lat="42.2900184" lon="13.5051159"><ele>570.0</ele><time>2026-04-26T08:19:24.575Z</time></trkpt><trkpt lat="42.2899984" lon="13.5052096"><ele>570.0</ele><time>2026-04-26T08:19:27.583Z</time></trkpt><trkpt lat="42.2899733" lon="13.5053059"><ele>570.0</ele><time>2026-04-26T08:19:30.576Z</time></trkpt><trkpt lat="42.2899637" lon="13.5054122"><ele>570.0</ele><time>2026-04-26T08:19:33.581Z</time></trkpt><trkpt lat="42.2899471" lon="13.5055044"><ele>570.0</ele><time>2026-04-26T08:19:36.641Z</time></trkpt><trkpt lat="42.289922" lon="13.5055969"><ele>570.0</ele><time>2026-04-26T08:19:39.55Z</time></trkpt><trkpt lat="42.2898882" lon="13.5056991"><ele>570.0</ele><time>2026-04-26T08:19:42.565Z</time></trkpt><trkpt lat="42.2898539" lon="13.5057992"><ele>570.0</ele><time>2026-04-26T08:19:45.62Z</time></trkpt><trkpt lat="42.2898248" lon="13.5058803"><ele>570.0</ele><time>2026-04-26T08:19:48.526Z</time></trkpt><trkpt lat="42.2897882" lon="13.5059724"><ele>570.0</ele><time>2026-04-26T08:19:51.571Z</time></trkpt><trkpt lat="42.2897575" lon="13.5060687"><ele>570.0</ele><time>2026-04-26T08:19:54.571Z</time></trkpt><trkpt lat="42.2897353" lon="13.506164"><ele>570.0</ele><time>2026-04-26T08:19:57.579Z</time></trkpt><trkpt lat="42.2896917" lon="13.5062699"><ele>570.0</ele><time>2026-04-26T08:20:00.572Z</time></trkpt><trkpt lat="42.2896593" lon="13.5063518"><ele>570.1666666666666</ele><time>2026-04-26T08:20:03.569Z</time></trkpt><trkpt lat="42.2896292" lon="13.5064455"><ele>570.3333333333334</ele><time>2026-04-26T08:20:06.567Z</time></trkpt><trkpt lat="42.2896123" lon="13.5065429"><ele>570.5</ele><time>2026-04-26T08:20:09.517Z</time></trkpt><trkpt lat="42.2896091" lon="13.5066507"><ele>570.6666666666667</ele><time>2026-04-26T08:20:12.595Z</time></trkpt><trkpt lat="42.2896008" lon="13.5067535"><ele>570.8333333333334</ele><time>2026-04-26T08:20:15.675Z</time></trkpt><trkpt lat="42.2895811" lon="13.5068544"><ele>571.0</ele><time>2026-04-26T08:20:19.571Z</time></trkpt><trkpt lat="42.2895733" lon="13.5069624"><ele>571.0</ele><time>2026-04-26T08:20:23.626Z</time></trkpt><trkpt lat="42.2895606" lon="13.5070656"><ele>571.0</ele><time>2026-04-26T08:20:27.573Z</time></trkpt><trkpt lat="42.2895303" lon="13.50715"><ele>571.0</ele><time>2026-04-26T08:20:30.476Z</time></trkpt><trkpt lat="42.2894969" lon="13.5072434"><ele>571.0</ele><time>2026-04-26T08:20:33.563Z</time></trkpt><trkpt lat="42.2894699" lon="13.5073355"><ele>571.0</ele><time>2026-04-26T08:20:36.582Z</time></trkpt><trkpt lat="42.2894412" lon="13.5074319"><ele>571.0</ele><time>2026-04-26T08:20:39.612Z</time></trkpt><trkpt lat="42.2894226" lon="13.5075324"><ele>570.8333333333334</ele><time>2026-04-26T08:20:42.628Z</time></trkpt><trkpt lat="42.2894252" lon="13.5076411"><ele>570.6666666666667</ele><time>2026-04-26T08:20:45.555Z</time></trkpt><trkpt lat="42.289431" lon="13.5077572"><ele>570.5</ele><time>2026-04-26T08:20:48.722Z</time></trkpt><trkpt lat="42.2894427" lon="13.5078805"><ele>570.3333333333334</ele><time>2026-04-26T08:20:52.191Z</time></trkpt><trkpt lat="42.2894597" lon="13.5079979"><ele>570.1666666666666</ele><time>2026-04-26T08:20:55.6Z</time></trkpt><trkpt lat="42.2894636" lon="13.5080885"><ele>570.0</ele><time>2026-04-26T08:20:58.606Z</time></trkpt><trkpt lat="42.2894624" lon="13.5081918"><ele>570.0</ele><time>2026-04-26T08:21:01.572Z</time></trkpt><trkpt lat="42.2894533" lon="13.5082999"><ele>570.0</ele><time>2026-04-26T08:21:04.574Z</time></trkpt><trkpt lat="42.2894278" lon="13.5084034"><ele>570.0</ele><time>2026-04-26T08:21:07.643Z</time></trkpt><trkpt lat="42.2893973" lon="13.508508"><ele>570.0</ele><time>2026-04-26T08:21:10.915Z</time></trkpt><trkpt lat="42.2893685" lon="13.508626"><ele>570.0</ele><time>2026-04-26T08:21:14.37Z</time></trkpt><trkpt lat="42.2893519" lon="13.5087392"><ele>570.0</ele><time>2026-04-26T08:21:17.566Z</time></trkpt><trkpt lat="42.2893292" lon="13.5088723"><ele>569.8333333333334</ele><time>2026-04-26T08:21:21.605Z</time></trkpt><trkpt lat="42.2893215" lon="13.508974"><ele>569.6666666666666</ele><time>2026-04-26T08:21:24.571Z</time></trkpt><trkpt lat="42.2893177" lon="13.5090849"><ele>569.5</ele><time>2026-04-26T08:21:27.695Z</time></trkpt><trkpt lat="42.2893273" lon="13.5092047"><ele>569.3333333333333</ele><time>2026-04-26T08:21:31.161Z</time></trkpt><trkpt lat="42.2893104" lon="13.5093224"><ele>569.1666666666666</ele><time>2026-04-26T08:21:34.575Z</time></trkpt><trkpt lat="42.2892821" lon="13.5094221"><ele>569.0</ele><time>2026-04-26T08:21:37.625Z</time></trkpt><trkpt lat="42.289259" lon="13.5095201"><ele>569.8333333333333</ele><time>2026-04-26T08:21:40.558Z</time></trkpt><trkpt lat="42.289249" lon="13.5096309"><ele>570.6666666666666</ele><time>2026-04-26T08:21:43.557Z</time></trkpt><trkpt lat="42.2892679" lon="13.5097344"><ele>571.5</ele><time>2026-04-26T08:21:46.578Z</time></trkpt><trkpt lat="42.2892922" lon="13.509841"><ele>572.3333333333334</ele><time>2026-04-26T08:21:49.542Z</time></trkpt><trkpt lat="42.2893131" lon="13.5099527"><ele>573.1666666666667</ele><time>2026-04-26T08:21:52.619Z</time></trkpt><trkpt lat="42.289324" lon="13.5100449"><ele>574.0</ele><time>2026-04-26T08:21:55.609Z</time></trkpt><trkpt lat="42.2893156" lon="13.5101363"><ele>574.0</ele><time>2026-04-26T08:21:58.563Z</time></trkpt><trkpt lat="42.2892874" lon="13.5102424"><ele>574.0</ele><time>2026-04-26T08:22:01.565Z</time></trkpt><trkpt lat="42.2892369" lon="13.5103329"><ele>574.0</ele><time>2026-04-26T08:22:04.564Z</time></trkpt><trkpt lat="42.2891925" lon="13.5104287"><ele>574.0</ele><time>2026-04-26T08:22:07.572Z</time></trkpt><trkpt lat="42.2891507" lon="13.5105211"><ele>574.0</ele><time>2026-04-26T08:22:10.576Z</time></trkpt><trkpt lat="42.2891163" lon="13.5106111"><ele>574.0</ele><time>2026-04-26T08:22:13.469Z</time></trkpt><trkpt lat="42.2890856" lon="13.5107122"><ele>574.0</ele><time>2026-04-26T08:22:16.492Z</time></trkpt><trkpt lat="42.2890566" lon="13.510811"><ele>574.0</ele><time>2026-04-26T08:22:19.488Z</time></trkpt><trkpt lat="42.2890297" lon="13.5109142"><ele>574.0</ele><time>2026-04-26T08:22:22.514Z</time></trkpt><trkpt lat="42.2890047" lon="13.5110153"><ele>574.0</ele><time>2026-04-26T08:22:25.595Z</time></trkpt><trkpt lat="42.2889655" lon="13.5111095"><ele>574.0</ele><time>2026-04-26T08:22:28.57Z</time></trkpt><trkpt lat="42.288932" lon="13.5112122"><ele>574.0</ele><time>2026-04-26T08:22:31.682Z</time></trkpt><trkpt lat="42.2888965" lon="13.5113098"><ele>572.5</ele><time>2026-04-26T08:22:34.597Z</time></trkpt><trkpt lat="42.2888614" lon="13.5114175"><ele>571.0</ele><time>2026-04-26T08:22:37.662Z</time></trkpt><trkpt lat="42.288835" lon="13.5115299"><ele>569.5</ele><time>2026-04-26T08:22:40.678Z</time></trkpt><trkpt lat="42.288831" lon="13.5116193"><ele>568.0</ele><time>2026-04-26T08:22:42.989Z</time></trkpt><trkpt lat="42.2888178" lon="13.5117439"><ele>566.5</ele><time>2026-04-26T08:22:46.672Z</time></trkpt><trkpt lat="42.288806" lon="13.5118324"><ele>565.0</ele><time>2026-04-26T08:22:49.494Z</time></trkpt><trkpt lat="42.2887865" lon="13.5119395"><ele>565.0</ele><time>2026-04-26T08:22:52.605Z</time></trkpt><trkpt lat="42.2887616" lon="13.5120344"><ele>565.0</ele><time>2026-04-26T08:22:55.57Z</time></trkpt><trkpt lat="42.2887367" lon="13.5121387"><ele>565.0</ele><time>2026-04-26T08:22:58.587Z</time></trkpt><trkpt lat="42.2887196" lon="13.5122419"><ele>565.0</ele><time>2026-04-26T08:23:01.555Z</time></trkpt><trkpt lat="42.288706" lon="13.5123418"><ele>565.0</ele><time>2026-04-26T08:23:04.598Z</time></trkpt><trkpt lat="42.2886959" lon="13.5124364"><ele>565.0</ele><time>2026-04-26T08:23:07.568Z</time></trkpt><trkpt lat="42.2886822" lon="13.5125313"><ele>565.0</ele><time>2026-04-26T08:23:10.586Z</time></trkpt><trkpt lat="42.2886626" lon="13.512627"><ele>565.0</ele><time>2026-04-26T08:23:13.572Z</time></trkpt><trkpt lat="42.2886365" lon="13.512718"><ele>565.0</ele><time>2026-04-26T08:23:16.486Z</time></trkpt><trkpt lat="42.2886077" lon="13.512818"><ele>565.0</ele><time>2026-04-26T08:23:19.552Z</time></trkpt><trkpt lat="42.2885822" lon="13.5129227"><ele>565.0</ele><time>2026-04-26T08:23:22.57Z</time></trkpt><trkpt lat="42.2885634" lon="13.5130216"><ele>565.0</ele><time>2026-04-26T08:23:25.62Z</time></trkpt><trkpt lat="42.2885376" lon="13.5131176"><ele>564.9999999999999</ele><time>2026-04-26T08:23:28.579Z</time></trkpt><trkpt lat="42.2885191" lon="13.5132125"><ele>565.0</ele><time>2026-04-26T08:23:31.578Z</time></trkpt><trkpt lat="42.2884988" lon="13.5133037"><ele>565.0</ele><time>2026-04-26T08:23:34.567Z</time></trkpt><trkpt lat="42.2884713" lon="13.5133937"><ele>565.0</ele><time>2026-04-26T08:23:37.588Z</time></trkpt><trkpt lat="42.2884463" lon="13.5134804"><ele>565.0</ele><time>2026-04-26T08:23:40.544Z</time></trkpt><trkpt lat="42.2884178" lon="13.5135794"><ele>564.9999999999999</ele><time>2026-04-26T08:23:43.581Z</time></trkpt><trkpt lat="42.2883917" lon="13.5136823"><ele>565.0</ele><time>2026-04-26T08:23:46.652Z</time></trkpt><trkpt lat="42.2883706" lon="13.5137697"><ele>565.0</ele><time>2026-04-26T08:23:49.268Z</time></trkpt><trkpt lat="42.2883432" lon="13.5138735"><ele>565.0</ele><time>2026-04-26T08:23:52.568Z</time></trkpt><trkpt lat="42.2883134" lon="13.5139721"><ele>565.0</ele><time>2026-04-26T08:23:55.578Z</time></trkpt><trkpt lat="42.2882822" lon="13.5141047"><ele>565.0</ele><time>2026-04-26T08:23:59.623Z</time></trkpt><trkpt lat="42.2882702" lon="13.5142009"><ele>565.0</ele><time>2026-04-26T08:24:02.552Z</time></trkpt><trkpt lat="42.2882519" lon="13.5142982"><ele>565.0</ele><time>2026-04-26T08:24:05.62Z</time></trkpt><trkpt lat="42.2882372" lon="13.5144024"><ele>565.0</ele><time>2026-04-26T08:24:08.576Z</time></trkpt><trkpt lat="42.2882165" lon="13.5145042"><ele>565.0</ele><time>2026-04-26T08:24:11.614Z</time></trkpt><trkpt lat="42.2882061" lon="13.5146061"><ele>565.0</ele><time>2026-04-26T08:24:14.636Z</time></trkpt><trkpt lat="42.2882" lon="13.5147037"><ele>565.0</ele><time>2026-04-26T08:24:17.632Z</time></trkpt><trkpt lat="42.2881968" lon="13.5148036"><ele>565.0</ele><time>2026-04-26T08:24:20.624Z</time></trkpt><trkpt lat="42.28818" lon="13.5149095"><ele>565.0</ele><time>2026-04-26T08:24:23.572Z</time></trkpt><trkpt lat="42.2881751" lon="13.5150176"><ele>565.0</ele><time>2026-04-26T08:24:26.558Z</time></trkpt><trkpt lat="42.288149" lon="13.5151185"><ele>565.0</ele><time>2026-04-26T08:24:29.564Z</time></trkpt><trkpt lat="42.2881249" lon="13.515221"><ele>565.0</ele><time>2026-04-26T08:24:32.65Z</time></trkpt><trkpt lat="42.2881114" lon="13.5153122"><ele>565.0</ele><time>2026-04-26T08:24:35.516Z</time></trkpt><trkpt lat="42.2880982" lon="13.5154199"><ele>565.0</ele><time>2026-04-26T08:24:38.575Z</time></trkpt><trkpt lat="42.2880894" lon="13.5155231"><ele>565.0</ele><time>2026-04-26T08:24:41.668Z</time></trkpt><trkpt lat="42.2880684" lon="13.5156159"><ele>564.8333333333334</ele><time>2026-04-26T08:24:44.573Z</time></trkpt><trkpt lat="42.288045" lon="13.5157168"><ele>564.6666666666667</ele><time>2026-04-26T08:24:47.572Z</time></trkpt><trkpt lat="42.2880378" lon="13.5158209"><ele>564.5</ele><time>2026-04-26T08:24:50.562Z</time></trkpt><trkpt lat="42.2880323" lon="13.5159086"><ele>564.3333333333334</ele><time>2026-04-26T08:24:53.11Z</time></trkpt><trkpt lat="42.2880263" lon="13.5160233"><ele>564.1666666666666</ele><time>2026-04-26T08:24:56.54Z</time></trkpt><trkpt lat="42.2880151" lon="13.516132"><ele>564.0</ele><time>2026-04-26T08:24:59.526Z</time></trkpt><trkpt lat="42.2880011" lon="13.5162246"><ele>563.6666666666666</ele><time>2026-04-26T08:25:02.573Z</time></trkpt><trkpt lat="42.2879779" lon="13.5163189"><ele>563.3333333333334</ele><time>2026-04-26T08:25:05.609Z</time></trkpt><trkpt lat="42.2879534" lon="13.5164254"><ele>563.0</ele><time>2026-04-26T08:25:08.571Z</time></trkpt><trkpt lat="42.2879359" lon="13.5165304"><ele>562.6666666666667</ele><time>2026-04-26T08:25:11.565Z</time></trkpt><trkpt lat="42.2879228" lon="13.5166325"><ele>562.3333333333334</ele><time>2026-04-26T08:25:14.57Z</time></trkpt><trkpt lat="42.2879267" lon="13.5167291"><ele>562.0</ele><time>2026-04-26T08:25:17.543Z</time></trkpt><trkpt lat="42.2879266" lon="13.5168391"><ele>562.0</ele><time>2026-04-26T08:25:20.645Z</time></trkpt><trkpt lat="42.2879147" lon="13.5169366"><ele>562.0</ele><time>2026-04-26T08:25:23.581Z</time></trkpt><trkpt lat="42.2879153" lon="13.5170384"><ele>562.0</ele><time>2026-04-26T08:25:26.532Z</time></trkpt><trkpt lat="42.2879087" lon="13.5171505"><ele>562.0</ele><time>2026-04-26T08:25:29.545Z</time></trkpt><trkpt lat="42.287898" lon="13.5172809"><ele>562.0</ele><time>2026-04-26T08:25:32.549Z</time></trkpt><trkpt lat="42.2878914" lon="13.5173804"><ele>562.0</ele><time>2026-04-26T08:25:35.592Z</time></trkpt><trkpt lat="42.2878756" lon="13.517486"><ele>561.8333333333334</ele><time>2026-04-26T08:25:38.574Z</time></trkpt><trkpt lat="42.2878672" lon="13.5175955"><ele>561.6666666666667</ele><time>2026-04-26T08:25:41.601Z</time></trkpt><trkpt lat="42.287862" lon="13.5177052"><ele>561.5</ele><time>2026-04-26T08:25:44.606Z</time></trkpt><trkpt lat="42.2878649" lon="13.5178097"><ele>561.3333333333334</ele><time>2026-04-26T08:25:47.584Z</time></trkpt><trkpt lat="42.2878629" lon="13.5179153"><ele>561.1666666666666</ele><time>2026-04-26T08:25:50.684Z</time></trkpt><trkpt lat="42.2878539" lon="13.5180208"><ele>561.0</ele><time>2026-04-26T08:25:53.604Z</time></trkpt><trkpt lat="42.2878443" lon="13.5181199"><ele>561.0</ele><time>2026-04-26T08:25:56.575Z</time></trkpt><trkpt lat="42.2878291" lon="13.5182232"><ele>561.0</ele><time>2026-04-26T08:25:59.555Z</time></trkpt><trkpt lat="42.2878202" lon="13.5183258"><ele>561.0</ele><time>2026-04-26T08:26:02.555Z</time></trkpt><trkpt lat="42.2878098" lon="13.5184315"><ele>561.0</ele><time>2026-04-26T08:26:05.557Z</time></trkpt><trkpt lat="42.2878018" lon="13.5185438"><ele>561.0</ele><time>2026-04-26T08:26:08.728Z</time></trkpt><trkpt lat="42.287793" lon="13.5186636"><ele>561.0</ele><time>2026-04-26T08:26:12.173Z</time></trkpt><trkpt lat="42.2877885" lon="13.518784"><ele>561.4285714285714</ele><time>2026-04-26T08:26:15.606Z</time></trkpt><trkpt lat="42.2877957" lon="13.5188843"><ele>561.8571428571428</ele><time>2026-04-26T08:26:18.567Z</time></trkpt><trkpt lat="42.2877917" lon="13.5189839"><ele>562.2857142857142</ele><time>2026-04-26T08:26:21.548Z</time></trkpt><trkpt lat="42.2877768" lon="13.5190846"><ele>562.7142857142857</ele><time>2026-04-26T08:26:24.573Z</time></trkpt><trkpt lat="42.2877639" lon="13.5191826"><ele>563.1428571428571</ele><time>2026-04-26T08:26:27.558Z</time></trkpt><trkpt lat="42.287751" lon="13.5192866"><ele>563.5714285714286</ele><time>2026-04-26T08:26:30.579Z</time></trkpt><trkpt lat="42.2877434" lon="13.5193838"><ele>564.0</ele><time>2026-04-26T08:26:33.487Z</time></trkpt><trkpt lat="42.2877376" lon="13.5194899"><ele>563.8571428571429</ele><time>2026-04-26T08:26:36.581Z</time></trkpt><trkpt lat="42.2877344" lon="13.5195947"><ele>563.7142857142857</ele><time>2026-04-26T08:26:39.551Z</time></trkpt><trkpt lat="42.287731" lon="13.5196944"><ele>563.5714285714286</ele><time>2026-04-26T08:26:42.566Z</time></trkpt><trkpt lat="42.2877219" lon="13.5197944"><ele>563.4285714285714</ele><time>2026-04-26T08:26:45.573Z</time></trkpt><trkpt lat="42.2877126" lon="13.5198961"><ele>563.2857142857143</ele><time>2026-04-26T08:26:48.552Z</time></trkpt><trkpt lat="42.2876875" lon="13.5199945"><ele>563.1428571428571</ele><time>2026-04-26T08:26:51.57Z</time></trkpt><trkpt lat="42.2876626" lon="13.5200838"><ele>563.0</ele><time>2026-04-26T08:26:54.488Z</time></trkpt><trkpt lat="42.2876469" lon="13.5201904"><ele>563.0</ele><time>2026-04-26T08:26:57.586Z</time></trkpt><trkpt lat="42.2876304" lon="13.5202928"><ele>563.0</ele><time>2026-04-26T08:27:00.583Z</time></trkpt><trkpt lat="42.2876096" lon="13.5203995"><ele>563.0</ele><time>2026-04-26T08:27:03.624Z</time></trkpt><trkpt lat="42.2875995" lon="13.5205003"><ele>563.0</ele><time>2026-04-26T08:27:06.568Z</time></trkpt><trkpt lat="42.287582" lon="13.5206004"><ele>563.0</ele><time>2026-04-26T08:27:09.555Z</time></trkpt><trkpt lat="42.2875554" lon="13.5206978"><ele>563.0</ele><time>2026-04-26T08:27:12.645Z</time></trkpt><trkpt lat="42.2875162" lon="13.5207813"><ele>563.0</ele><time>2026-04-26T08:27:15.557Z</time></trkpt><trkpt lat="42.2874837" lon="13.520874"><ele>563.0</ele><time>2026-04-26T08:27:18.507Z</time></trkpt><trkpt lat="42.2874613" lon="13.5209882"><ele>563.0</ele><time>2026-04-26T08:27:21.904Z</time></trkpt><trkpt lat="42.2874362" lon="13.5210774"><ele>563.0</ele><time>2026-04-26T08:27:24.612Z</time></trkpt><trkpt lat="42.2874024" lon="13.5211718"><ele>563.0</ele><time>2026-04-26T08:27:27.603Z</time></trkpt><trkpt lat="42.2873717" lon="13.521267"><ele>563.0</ele><time>2026-04-26T08:27:30.59Z</time></trkpt><trkpt lat="42.2873321" lon="13.5213657"><ele>563.3333333333333</ele><time>2026-04-26T08:27:33.644Z</time></trkpt><trkpt lat="42.2872992" lon="13.5214585"><ele>563.6666666666666</ele><time>2026-04-26T08:27:36.586Z</time></trkpt><trkpt lat="42.2872627" lon="13.5215556"><ele>564.0</ele><time>2026-04-26T08:27:39.645Z</time></trkpt><trkpt lat="42.2872298" lon="13.5216487"><ele>564.3333333333334</ele><time>2026-04-26T08:27:42.578Z</time></trkpt><trkpt lat="42.2872057" lon="13.5217444"><ele>564.6666666666667</ele><time>2026-04-26T08:27:45.567Z</time></trkpt><trkpt lat="42.2872011" lon="13.5218414"><ele>565.0</ele><time>2026-04-26T08:27:48.593Z</time></trkpt><trkpt lat="42.2871756" lon="13.5219348"><ele>565.0</ele><time>2026-04-26T08:27:51.572Z</time></trkpt><trkpt lat="42.28714" lon="13.5220227"><ele>565.0</ele><time>2026-04-26T08:27:54.597Z</time></trkpt><trkpt lat="42.2871651" lon="13.5221158"><ele>565.0</ele><time>2026-04-26T08:27:59.598Z</time></trkpt><trkpt lat="42.2871938" lon="13.5219244"><ele>565.0</ele><time>2026-04-26T08:28:01.577Z</time></trkpt><trkpt lat="42.2872108" lon="13.5218136"><ele>565.0</ele><time>2026-04-26T08:28:03.616Z</time></trkpt><trkpt lat="42.2872258" lon="13.5217293"><ele>565.0</ele><time>2026-04-26T08:28:05.646Z</time></trkpt><trkpt lat="42.2872418" lon="13.5216253"><ele>565.1428571428571</ele><time>2026-04-26T08:28:08.583Z</time></trkpt><trkpt lat="42.2872786" lon="13.5215305"><ele>565.2857142857142</ele><time>2026-04-26T08:28:11.564Z</time></trkpt><trkpt lat="42.2873108" lon="13.5214358"><ele>565.4285714285714</ele><time>2026-04-26T08:28:14.594Z</time></trkpt><trkpt lat="42.2873386" lon="13.5213429"><ele>565.5714285714286</ele><time>2026-04-26T08:28:17.567Z</time></trkpt><trkpt lat="42.2873686" lon="13.5212501"><ele>565.7142857142858</ele><time>2026-04-26T08:28:20.61Z</time></trkpt><trkpt lat="42.2873927" lon="13.5211609"><ele>565.8571428571429</ele><time>2026-04-26T08:28:23.66Z</time></trkpt><trkpt lat="42.2874193" lon="13.5210779"><ele>566.0</ele><time>2026-04-26T08:28:26.598Z</time></trkpt><trkpt lat="42.2874491" lon="13.520982"><ele>565.5</ele><time>2026-04-26T08:28:29.628Z</time></trkpt><trkpt lat="42.287464" lon="13.5208763"><ele>565.0</ele><time>2026-04-26T08:28:32.697Z</time></trkpt><trkpt lat="42.2874734" lon="13.520772"><ele>564.5</ele><time>2026-04-26T08:28:35.585Z</time></trkpt><trkpt lat="42.2874968" lon="13.520675"><ele>564.0</ele><time>2026-04-26T08:28:38.585Z</time></trkpt><trkpt lat="42.2875349" lon="13.5205426"><ele>563.5</ele><time>2026-04-26T08:28:42.588Z</time></trkpt><trkpt lat="42.2875576" lon="13.5204418"><ele>563.0</ele><time>2026-04-26T08:28:45.612Z</time></trkpt><trkpt lat="42.2875968" lon="13.5203574"><ele>563.0</ele><time>2026-04-26T08:28:48.565Z</time></trkpt><trkpt lat="42.2876263" lon="13.5202558"><ele>563.0</ele><time>2026-04-26T08:28:51.68Z</time></trkpt><trkpt lat="42.287646" lon="13.5201637"><ele>563.0</ele><time>2026-04-26T08:28:54.578Z</time></trkpt><trkpt lat="42.2876621" lon="13.5200603"><ele>563.0</ele><time>2026-04-26T08:28:57.482Z</time></trkpt><trkpt lat="42.2876724" lon="13.5199442"><ele>563.0</ele><time>2026-04-26T08:29:00.632Z</time></trkpt><trkpt lat="42.2876724" lon="13.5198385"><ele>563.0</ele><time>2026-04-26T08:29:03.703Z</time></trkpt><trkpt lat="42.2876719" lon="13.5197408"><ele>563.0</ele><time>2026-04-26T08:29:06.588Z</time></trkpt><trkpt lat="42.2876783" lon="13.5196377"><ele>563.0</ele><time>2026-04-26T08:29:09.612Z</time></trkpt><trkpt lat="42.2876863" lon="13.51953"><ele>563.0</ele><time>2026-04-26T08:29:12.579Z</time></trkpt><trkpt lat="42.2876999" lon="13.5194301"><ele>563.0</ele><time>2026-04-26T08:29:15.577Z</time></trkpt><trkpt lat="42.2877133" lon="13.5193318"><ele>563.0</ele><time>2026-04-26T08:29:18.558Z</time></trkpt><trkpt lat="42.2877221" lon="13.5192299"><ele>563.0</ele><time>2026-04-26T08:29:21.561Z</time></trkpt><trkpt lat="42.2877408" lon="13.5191305"><ele>563.1666666666666</ele><time>2026-04-26T08:29:24.547Z</time></trkpt><trkpt lat="42.2877643" lon="13.5190262"><ele>563.3333333333333</ele><time>2026-04-26T08:29:27.601Z</time></trkpt><trkpt lat="42.2877807" lon="13.5189229"><ele>563.5</ele><time>2026-04-26T08:29:30.569Z</time></trkpt><trkpt lat="42.287795" lon="13.518818"><ele>563.6666666666666</ele><time>2026-04-26T08:29:33.663Z</time></trkpt><trkpt lat="42.2878005" lon="13.5187189"><ele>563.8333333333334</ele><time>2026-04-26T08:29:36.561Z</time></trkpt><trkpt lat="42.2878082" lon="13.5186142"><ele>564.0</ele><time>2026-04-26T08:29:39.449Z</time></trkpt><trkpt lat="42.2878295" lon="13.5185111"><ele>563.5</ele><time>2026-04-26T08:29:42.486Z</time></trkpt><trkpt lat="42.2878454" lon="13.5184069"><ele>563.0</ele><time>2026-04-26T08:29:45.548Z</time></trkpt><trkpt lat="42.2878584" lon="13.5183016"><ele>562.5</ele><time>2026-04-26T08:29:48.665Z</time></trkpt><trkpt lat="42.287861" lon="13.5181827"><ele>562.0</ele><time>2026-04-26T08:29:52.045Z</time></trkpt><trkpt lat="42.2878662" lon="13.5180938"><ele>561.5</ele><time>2026-04-26T08:29:54.579Z</time></trkpt><trkpt lat="42.2878674" lon="13.5179843"><ele>561.0</ele><time>2026-04-26T08:29:57.566Z</time></trkpt><trkpt lat="42.2878655" lon="13.5178768"><ele>561.0</ele><time>2026-04-26T08:30:00.564Z</time></trkpt><trkpt lat="42.2878656" lon="13.5177664"><ele>561.0</ele><time>2026-04-26T08:30:03.577Z</time></trkpt><trkpt lat="42.287869" lon="13.5176596"><ele>561.0</ele><time>2026-04-26T08:30:06.612Z</time></trkpt><trkpt lat="42.2878596" lon="13.5175589"><ele>561.0</ele><time>2026-04-26T08:30:09.576Z</time></trkpt><trkpt lat="42.2878589" lon="13.5174553"><ele>561.0</ele><time>2026-04-26T08:30:12.572Z</time></trkpt><trkpt lat="42.2878579" lon="13.5173576"><ele>561.0</ele><time>2026-04-26T08:30:15.47Z</time></trkpt><trkpt lat="42.2878604" lon="13.5172621"><ele>561.0</ele><time>2026-04-26T08:30:18.505Z</time></trkpt><trkpt lat="42.2878696" lon="13.5171613"><ele>561.0</ele><time>2026-04-26T08:30:21.567Z</time></trkpt><trkpt lat="42.2878842" lon="13.5170622"><ele>561.0</ele><time>2026-04-26T08:30:24.567Z</time></trkpt><trkpt lat="42.2878989" lon="13.5169593"><ele>561.0</ele><time>2026-04-26T08:30:27.546Z</time></trkpt><trkpt lat="42.2879005" lon="13.5168652"><ele>561.0</ele><time>2026-04-26T08:30:30.647Z</time></trkpt><trkpt lat="42.2879094" lon="13.5167688"><ele>561.0</ele><time>2026-04-26T08:30:33.559Z</time></trkpt><trkpt lat="42.2879227" lon="13.5166688"><ele>561.0</ele><time>2026-04-26T08:30:36.58Z</time></trkpt><trkpt lat="42.2879209" lon="13.5165628"><ele>561.1666666666666</ele><time>2026-04-26T08:30:39.559Z</time></trkpt><trkpt lat="42.2879249" lon="13.516459"><ele>561.3333333333334</ele><time>2026-04-26T08:30:42.566Z</time></trkpt><trkpt lat="42.2879378" lon="13.5163628"><ele>561.5</ele><time>2026-04-26T08:30:45.56Z</time></trkpt><trkpt lat="42.2879543" lon="13.5162575"><ele>561.6666666666667</ele><time>2026-04-26T08:30:48.466Z</time></trkpt><trkpt lat="42.2879764" lon="13.5161553"><ele>561.8333333333334</ele><time>2026-04-26T08:30:51.545Z</time></trkpt><trkpt lat="42.2880007" lon="13.5160585"><ele>562.0</ele><time>2026-04-26T08:30:54.538Z</time></trkpt><trkpt lat="42.2880115" lon="13.5159547"><ele>562.2857142857143</ele><time>2026-04-26T08:30:57.55Z</time></trkpt><trkpt lat="42.2880232" lon="13.5158482"><ele>562.5714285714286</ele><time>2026-04-26T08:31:00.595Z</time></trkpt><trkpt lat="42.2880397" lon="13.5157498"><ele>562.8571428571429</ele><time>2026-04-26T08:31:03.571Z</time></trkpt><trkpt lat="42.2880538" lon="13.5156465"><ele>563.1428571428571</ele><time>2026-04-26T08:31:06.561Z</time></trkpt><trkpt lat="42.2880611" lon="13.5155573"><ele>563.4285714285714</ele><time>2026-04-26T08:31:09.566Z</time></trkpt><trkpt lat="42.2880539" lon="13.5154702"><ele>563.7142857142858</ele><time>2026-04-26T08:31:12.622Z</time></trkpt><trkpt lat="42.2880617" lon="13.5153841"><ele>564.0</ele><time>2026-04-26T08:31:15.568Z</time></trkpt><trkpt lat="42.2880696" lon="13.5152851"><ele>564.1666666666666</ele><time>2026-04-26T08:31:18.507Z</time></trkpt><trkpt lat="42.2880893" lon="13.5151623"><ele>564.3333333333334</ele><time>2026-04-26T08:31:21.564Z</time></trkpt><trkpt lat="42.2881154" lon="13.5150555"><ele>564.5</ele><time>2026-04-26T08:31:25.569Z</time></trkpt><trkpt lat="42.2881363" lon="13.5149579"><ele>564.6666666666667</ele><time>2026-04-26T08:31:28.569Z</time></trkpt><trkpt lat="42.2881636" lon="13.5148546"><ele>564.8333333333334</ele><time>2026-04-26T08:31:31.559Z</time></trkpt><trkpt lat="42.2881953" lon="13.5147319"><ele>565.0</ele><time>2026-04-26T08:31:34.555Z</time></trkpt><trkpt lat="42.2882262" lon="13.5146234"><ele>565.0</ele><time>2026-04-26T08:31:37.475Z</time></trkpt><trkpt lat="42.2882337" lon="13.5145131"><ele>565.0</ele><time>2026-04-26T08:31:40.595Z</time></trkpt><trkpt lat="42.288249" lon="13.5144108"><ele>565.0</ele><time>2026-04-26T08:31:43.552Z</time></trkpt><trkpt lat="42.2882659" lon="13.5143022"><ele>565.0</ele><time>2026-04-26T08:31:46.568Z</time></trkpt><trkpt lat="42.2882901" lon="13.5142"><ele>565.0</ele><time>2026-04-26T08:31:49.586Z</time></trkpt><trkpt lat="42.2883209" lon="13.5141029"><ele>565.0</ele><time>2026-04-26T08:31:52.592Z</time></trkpt><trkpt lat="42.2883336" lon="13.514"><ele>565.0</ele><time>2026-04-26T08:31:55.642Z</time></trkpt><trkpt lat="42.2883489" lon="13.5138921"><ele>565.0</ele><time>2026-04-26T08:31:58.6Z</time></trkpt><trkpt lat="42.2883884" lon="13.5137925"><ele>565.0</ele><time>2026-04-26T08:32:01.565Z</time></trkpt><trkpt lat="42.2884195" lon="13.513684"><ele>565.0</ele><time>2026-04-26T08:32:04.648Z</time></trkpt><trkpt lat="42.2884208" lon="13.5135896"><ele>565.0</ele><time>2026-04-26T08:32:07.596Z</time></trkpt><trkpt lat="42.2884772" lon="13.5134909"><ele>565.0</ele><time>2026-04-26T08:32:10.569Z</time></trkpt><trkpt lat="42.2884783" lon="13.5133773"><ele>565.0</ele><time>2026-04-26T08:32:13.637Z</time></trkpt><trkpt lat="42.2884929" lon="13.5132767"><ele>565.0</ele><time>2026-04-26T08:32:16.562Z</time></trkpt><trkpt lat="42.2885144" lon="13.5131708"><ele>565.0</ele><time>2026-04-26T08:32:19.606Z</time></trkpt><trkpt lat="42.2885315" lon="13.5130697"><ele>565.0</ele><time>2026-04-26T08:32:22.603Z</time></trkpt><trkpt lat="42.2885543" lon="13.5129721"><ele>565.0</ele><time>2026-04-26T08:32:25.541Z</time></trkpt><trkpt lat="42.2885922" lon="13.5128713"><ele>565.0</ele><time>2026-04-26T08:32:28.631Z</time></trkpt><trkpt lat="42.2886286" lon="13.5127847"><ele>564.8333333333334</ele><time>2026-04-26T08:32:31.569Z</time></trkpt><trkpt lat="42.2886737" lon="13.5126903"><ele>564.6666666666667</ele><time>2026-04-26T08:32:34.671Z</time></trkpt><trkpt lat="42.2887012" lon="13.5125772"><ele>564.5</ele><time>2026-04-26T08:32:37.748Z</time></trkpt><trkpt lat="42.2887236" lon="13.5124829"><ele>564.3333333333334</ele><time>2026-04-26T08:32:40.349Z</time></trkpt><trkpt lat="42.2887206" lon="13.5123924"><ele>564.1666666666666</ele><time>2026-04-26T08:32:42.57Z</time></trkpt><trkpt lat="42.2887118" lon="13.512283"><ele>564.0</ele><time>2026-04-26T08:32:45.564Z</time></trkpt><trkpt lat="42.2887116" lon="13.5121754"><ele>564.1666666666666</ele><time>2026-04-26T08:32:48.54Z</time></trkpt><trkpt lat="42.2887201" lon="13.5120672"><ele>564.3333333333334</ele><time>2026-04-26T08:32:51.562Z</time></trkpt><trkpt lat="42.2887325" lon="13.5119625"><ele>564.5</ele><time>2026-04-26T08:32:54.548Z</time></trkpt><trkpt lat="42.2887522" lon="13.5118567"><ele>564.6666666666667</ele><time>2026-04-26T08:32:57.651Z</time></trkpt><trkpt lat="42.2887862" lon="13.5117612"><ele>564.8333333333334</ele><time>2026-04-26T08:33:00.544Z</time></trkpt><trkpt lat="42.2888103" lon="13.5116603"><ele>565.0</ele><time>2026-04-26T08:33:03.596Z</time></trkpt><trkpt lat="42.2888452" lon="13.5115586"><ele>565.0</ele><time>2026-04-26T08:33:06.576Z</time></trkpt><trkpt lat="42.2888684" lon="13.5114541"><ele>565.0</ele><time>2026-04-26T08:33:09.54Z</time></trkpt><trkpt lat="42.2888838" lon="13.5113516"><ele>565.0</ele><time>2026-04-26T08:33:12.542Z</time></trkpt><trkpt lat="42.288901" lon="13.5112532"><ele>565.0</ele><time>2026-04-26T08:33:15.49Z</time></trkpt><trkpt lat="42.2889391" lon="13.511156"><ele>565.0</ele><time>2026-04-26T08:33:18.89Z</time></trkpt><trkpt lat="42.2889991" lon="13.5110523"><ele>565.0</ele><time>2026-04-26T08:33:22.565Z</time></trkpt><trkpt lat="42.2890419" lon="13.5109608"><ele>566.5</ele><time>2026-04-26T08:33:25.556Z</time></trkpt><trkpt lat="42.2890662" lon="13.5108591"><ele>568.0</ele><time>2026-04-26T08:33:28.604Z</time></trkpt><trkpt lat="42.2890881" lon="13.5107632"><ele>569.5</ele><time>2026-04-26T08:33:31.566Z</time></trkpt><trkpt lat="42.2891044" lon="13.510667"><ele>571.0</ele><time>2026-04-26T08:33:34.491Z</time></trkpt><trkpt lat="42.2891216" lon="13.5105784"><ele>572.5</ele><time>2026-04-26T08:33:37.577Z</time></trkpt><trkpt lat="42.2891821" lon="13.5104813"><ele>574.0</ele><time>2026-04-26T08:33:41.566Z</time></trkpt><trkpt lat="42.2892516" lon="13.5104013"><ele>574.0</ele><time>2026-04-26T08:33:46.832Z</time></trkpt><trkpt lat="42.2892973" lon="13.510289"><ele>574.0</ele><time>2026-04-26T08:33:50.582Z</time></trkpt><trkpt lat="42.2893091" lon="13.5101839"><ele>574.0</ele><time>2026-04-26T08:33:53.648Z</time></trkpt><trkpt lat="42.2893107" lon="13.5100971"><ele>574.0</ele><time>2026-04-26T08:33:56.081Z</time></trkpt><trkpt lat="42.2892914" lon="13.5099847"><ele>574.0</ele><time>2026-04-26T08:33:59.714Z</time></trkpt><trkpt lat="42.2892706" lon="13.509881"><ele>574.0</ele><time>2026-04-26T08:34:02.735Z</time></trkpt><trkpt lat="42.2892688" lon="13.5097751"><ele>574.0</ele><time>2026-04-26T08:34:05.648Z</time></trkpt><trkpt lat="42.2892892" lon="13.5096593"><ele>574.0</ele><time>2026-04-26T08:34:08.542Z</time></trkpt><trkpt lat="42.2893112" lon="13.5095432"><ele>574.0</ele><time>2026-04-26T08:34:11.565Z</time></trkpt><trkpt lat="42.2893304" lon="13.509436"><ele>574.0</ele><time>2026-04-26T08:34:14.561Z</time></trkpt><trkpt lat="42.2893458" lon="13.509325"><ele>574.0</ele><time>2026-04-26T08:34:17.535Z</time></trkpt><trkpt lat="42.2893585" lon="13.5092178"><ele>574.0</ele><time>2026-04-26T08:34:20.562Z</time></trkpt><trkpt lat="42.2893647" lon="13.5091076"><ele>573.3333333333334</ele><time>2026-04-26T08:34:23.585Z</time></trkpt><trkpt lat="42.2893661" lon="13.5090058"><ele>572.6666666666667</ele><time>2026-04-26T08:34:26.549Z</time></trkpt><trkpt lat="42.2893686" lon="13.5088979"><ele>572.0</ele><time>2026-04-26T08:34:29.531Z</time></trkpt><trkpt lat="42.2893696" lon="13.5087799"><ele>571.3333333333334</ele><time>2026-04-26T08:34:32.946Z</time></trkpt><trkpt lat="42.2893744" lon="13.5086594"><ele>570.6666666666666</ele><time>2026-04-26T08:34:36.253Z</time></trkpt><trkpt lat="42.2893942" lon="13.5085714"><ele>570.0</ele><time>2026-04-26T08:34:38.548Z</time></trkpt><trkpt lat="42.2894128" lon="13.5084732"><ele>570.0</ele><time>2026-04-26T08:34:41.516Z</time></trkpt><trkpt lat="42.2894288" lon="13.5083703"><ele>570.0</ele><time>2026-04-26T08:34:44.548Z</time></trkpt><trkpt lat="42.2894353" lon="13.5082685"><ele>570.0</ele><time>2026-04-26T08:34:47.546Z</time></trkpt><trkpt lat="42.2894345" lon="13.5081532"><ele>570.0</ele><time>2026-04-26T08:34:50.562Z</time></trkpt><trkpt lat="42.289434" lon="13.5080477"><ele>570.0</ele><time>2026-04-26T08:34:53.587Z</time></trkpt><trkpt lat="42.2894219" lon="13.507949"><ele>570.0</ele><time>2026-04-26T08:34:56.542Z</time></trkpt><trkpt lat="42.2894058" lon="13.5078493"><ele>570.0</ele><time>2026-04-26T08:34:59.544Z</time></trkpt><trkpt lat="42.2893932" lon="13.5077489"><ele>570.0</ele><time>2026-04-26T08:35:02.545Z</time></trkpt><trkpt lat="42.2893885" lon="13.5076497"><ele>570.0</ele><time>2026-04-26T08:35:05.562Z</time></trkpt><trkpt lat="42.2893891" lon="13.5075521"><ele>570.0</ele><time>2026-04-26T08:35:08.545Z</time></trkpt><trkpt lat="42.2894285" lon="13.5074468"><ele>570.0</ele><time>2026-04-26T08:35:11.446Z</time></trkpt><trkpt lat="42.2894744" lon="13.5073446"><ele>570.0</ele><time>2026-04-26T08:35:14.646Z</time></trkpt><trkpt lat="42.2895111" lon="13.5072571"><ele>570.0</ele><time>2026-04-26T08:35:17.488Z</time></trkpt><trkpt lat="42.2895593" lon="13.5071696"><ele>570.0</ele><time>2026-04-26T08:35:21.622Z</time></trkpt><trkpt lat="42.2895927" lon="13.5070841"><ele>570.0</ele><time>2026-04-26T08:35:24.544Z</time></trkpt><trkpt lat="42.2896183" lon="13.5069945"><ele>570.0</ele><time>2026-04-26T08:35:27.536Z</time></trkpt><trkpt lat="42.289634" lon="13.5069034"><ele>570.0</ele><time>2026-04-26T08:35:30.539Z</time></trkpt><trkpt lat="42.2896346" lon="13.5068024"><ele>570.0</ele><time>2026-04-26T08:35:33.563Z</time></trkpt><trkpt lat="42.2896328" lon="13.5066944"><ele>570.0</ele><time>2026-04-26T08:35:36.576Z</time></trkpt><trkpt lat="42.2896431" lon="13.506588"><ele>570.0</ele><time>2026-04-26T08:35:39.548Z</time></trkpt><trkpt lat="42.2896661" lon="13.5064869"><ele>570.0</ele><time>2026-04-26T08:35:42.499Z</time></trkpt><trkpt lat="42.2897018" lon="13.5063936"><ele>570.0</ele><time>2026-04-26T08:35:45.505Z</time></trkpt><trkpt lat="42.2897331" lon="13.5062884"><ele>570.0</ele><time>2026-04-26T08:35:48.559Z</time></trkpt><trkpt lat="42.2897651" lon="13.5061815"><ele>570.0</ele><time>2026-04-26T08:35:51.54Z</time></trkpt><trkpt lat="42.2897999" lon="13.5060782"><ele>570.0</ele><time>2026-04-26T08:35:54.592Z</time></trkpt><trkpt lat="42.2898247" lon="13.5059804"><ele>570.0</ele><time>2026-04-26T08:35:57.348Z</time></trkpt><trkpt lat="42.2898641" lon="13.5058618"><ele>570.0</ele><time>2026-04-26T08:36:00.549Z</time></trkpt><trkpt lat="42.2899013" lon="13.5057552"><ele>570.0</ele><time>2026-04-26T08:36:03.578Z</time></trkpt><trkpt lat="42.2899365" lon="13.5056672"><ele>570.0</ele><time>2026-04-26T08:36:06.567Z</time></trkpt><trkpt lat="42.2899593" lon="13.5055678"><ele>570.0</ele><time>2026-04-26T08:36:09.466Z</time></trkpt><trkpt lat="42.2899852" lon="13.5054878"><ele>570.0</ele><time>2026-04-26T08:36:11.553Z</time></trkpt><trkpt lat="42.2900195" lon="13.5053829"><ele>570.0</ele><time>2026-04-26T08:36:14.471Z</time></trkpt><trkpt lat="42.2900422" lon="13.5052883"><ele>570.0</ele><time>2026-04-26T08:36:17.487Z</time></trkpt><trkpt lat="42.290066" lon="13.5051812"><ele>570.0</ele><time>2026-04-26T08:36:20.533Z</time></trkpt><trkpt lat="42.2900767" lon="13.505072"><ele>570.0</ele><time>2026-04-26T08:36:23.55Z</time></trkpt><trkpt lat="42.2900854" lon="13.5049697"><ele>570.0</ele><time>2026-04-26T08:36:26.555Z</time></trkpt><trkpt lat="42.2901099" lon="13.5048673"><ele>570.0</ele><time>2026-04-26T08:36:29.549Z</time></trkpt><trkpt lat="42.2901423" lon="13.5047658"><ele>570.0</ele><time>2026-04-26T08:36:32.57Z</time></trkpt><trkpt lat="42.2901679" lon="13.5046676"><ele>570.0</ele><time>2026-04-26T08:36:35.578Z</time></trkpt><trkpt lat="42.2902055" lon="13.5045804"><ele>570.0</ele><time>2026-04-26T08:36:38.545Z</time></trkpt><trkpt lat="42.2902317" lon="13.5044839"><ele>570.0</ele><time>2026-04-26T08:36:41.54Z</time></trkpt><trkpt lat="42.2902619" lon="13.5043835"><ele>570.0</ele><time>2026-04-26T08:36:44.536Z</time></trkpt><trkpt lat="42.2902839" lon="13.5042925"><ele>570.0</ele><time>2026-04-26T08:36:47.543Z</time></trkpt><trkpt lat="42.2903158" lon="13.5042037"><ele>569.3333333333334</ele><time>2026-04-26T08:36:50.572Z</time></trkpt><trkpt lat="42.2903597" lon="13.5041322"><ele>568.6666666666666</ele><time>2026-04-26T08:36:53.536Z</time></trkpt><trkpt lat="42.2904049" lon="13.5040527"><ele>568.0</ele><time>2026-04-26T08:36:56.539Z</time></trkpt><trkpt lat="42.2904551" lon="13.5039696"><ele>567.3333333333333</ele><time>2026-04-26T08:36:59.687Z</time></trkpt><trkpt lat="42.2905159" lon="13.5038667"><ele>566.6666666666666</ele><time>2026-04-26T08:37:03.579Z</time></trkpt><trkpt lat="42.2905522" lon="13.5037765"><ele>566.0</ele><time>2026-04-26T08:37:06.576Z</time></trkpt><trkpt lat="42.290539" lon="13.5036669"><ele>566.0</ele><time>2026-04-26T08:37:09.512Z</time></trkpt><trkpt lat="42.2905029" lon="13.5035665"><ele>566.0</ele><time>2026-04-26T08:37:12.502Z</time></trkpt><trkpt lat="42.2904798" lon="13.5034613"><ele>566.0</ele><time>2026-04-26T08:37:15.608Z</time></trkpt><trkpt lat="42.2904587" lon="13.503362"><ele>566.0</ele><time>2026-04-26T08:37:18.549Z</time></trkpt><trkpt lat="42.2904636" lon="13.5032493"><ele>566.0</ele><time>2026-04-26T08:37:21.558Z</time></trkpt><trkpt lat="42.2904901" lon="13.5031375"><ele>566.0</ele><time>2026-04-26T08:37:24.55Z</time></trkpt><trkpt lat="42.290523" lon="13.5030274"><ele>566.0</ele><time>2026-04-26T08:37:27.596Z</time></trkpt><trkpt lat="42.2905411" lon="13.5029263"><ele>566.0</ele><time>2026-04-26T08:37:30.544Z</time></trkpt><trkpt lat="42.2905808" lon="13.5028288"><ele>566.0</ele><time>2026-04-26T08:37:33.618Z</time></trkpt><trkpt lat="42.2906519" lon="13.5027507"><ele>566.0</ele><time>2026-04-26T08:37:36.556Z</time></trkpt><trkpt lat="42.2907129" lon="13.5026695"><ele>566.0</ele><time>2026-04-26T08:37:39.553Z</time></trkpt><trkpt lat="42.2907633" lon="13.5025808"><ele>566.0</ele><time>2026-04-26T08:37:42.592Z</time></trkpt><trkpt lat="42.2908044" lon="13.5024915"><ele>566.6666666666666</ele><time>2026-04-26T08:37:45.556Z</time></trkpt><trkpt lat="42.2908516" lon="13.5023982"><ele>567.3333333333333</ele><time>2026-04-26T08:37:48.561Z</time></trkpt><trkpt lat="42.290901" lon="13.5023154"><ele>568.0</ele><time>2026-04-26T08:37:51.559Z</time></trkpt><trkpt lat="42.290942" lon="13.5022322"><ele>568.6666666666666</ele><time>2026-04-26T08:37:54.569Z</time></trkpt><trkpt lat="42.2909843" lon="13.5021589"><ele>569.3333333333334</ele><time>2026-04-26T08:37:57.542Z</time></trkpt><trkpt lat="42.2910244" lon="13.5020769"><ele>570.0</ele><time>2026-04-26T08:38:00.471Z</time></trkpt><trkpt lat="42.2910639" lon="13.5019925"><ele>570.0</ele><time>2026-04-26T08:38:03.477Z</time></trkpt><trkpt lat="42.2911016" lon="13.501901"><ele>570.0</ele><time>2026-04-26T08:38:06.472Z</time></trkpt><trkpt lat="42.2911502" lon="13.501792"><ele>570.0</ele><time>2026-04-26T08:38:09.632Z</time></trkpt><trkpt lat="42.2911801" lon="13.501708"><ele>570.0</ele><time>2026-04-26T08:38:12.623Z</time></trkpt><trkpt lat="42.2912131" lon="13.5016309"><ele>570.0</ele><time>2026-04-26T08:38:15.556Z</time></trkpt><trkpt lat="42.2912461" lon="13.5015341"><ele>570.0</ele><time>2026-04-26T08:38:18.55Z</time></trkpt><trkpt lat="42.291275" lon="13.501434"><ele>570.0</ele><time>2026-04-26T08:38:21.56Z</time></trkpt><trkpt lat="42.291303" lon="13.5013383"><ele>570.0</ele><time>2026-04-26T08:38:24.542Z</time></trkpt><trkpt lat="42.291343" lon="13.5012443"><ele>570.0</ele><time>2026-04-26T08:38:27.563Z</time></trkpt><trkpt lat="42.2914039" lon="13.5011504"><ele>570.0</ele><time>2026-04-26T08:38:30.661Z</time></trkpt><trkpt lat="42.2914885" lon="13.501114"><ele>570.0</ele><time>2026-04-26T08:38:33.562Z</time></trkpt><trkpt lat="42.2915622" lon="13.5010489"><ele>570.0</ele><time>2026-04-26T08:38:36.566Z</time></trkpt><trkpt lat="42.2916265" lon="13.5009601"><ele>570.1666666666666</ele><time>2026-04-26T08:38:39.568Z</time></trkpt><trkpt lat="42.2916771" lon="13.5008657"><ele>570.3333333333334</ele><time>2026-04-26T08:38:42.573Z</time></trkpt><trkpt lat="42.2917221" lon="13.500772"><ele>570.5</ele><time>2026-04-26T08:38:45.599Z</time></trkpt><trkpt lat="42.291751" lon="13.5006744"><ele>570.6666666666667</ele><time>2026-04-26T08:38:48.813Z</time></trkpt><trkpt lat="42.291803" lon="13.5005645"><ele>570.8333333333334</ele><time>2026-04-26T08:38:52.568Z</time></trkpt><trkpt lat="42.2918543" lon="13.5004759"><ele>571.0</ele><time>2026-04-26T08:38:55.589Z</time></trkpt><trkpt lat="42.291898" lon="13.5004068"><ele>571.4285714285714</ele><time>2026-04-26T08:38:58.638Z</time></trkpt><trkpt lat="42.2919313" lon="13.5003271"><ele>571.8571428571429</ele><time>2026-04-26T08:39:01.569Z</time></trkpt><trkpt lat="42.2919686" lon="13.5002443"><ele>572.2857142857142</ele><time>2026-04-26T08:39:04.541Z</time></trkpt><trkpt lat="42.2920175" lon="13.5001671"><ele>572.7142857142858</ele><time>2026-04-26T08:39:07.538Z</time></trkpt><trkpt lat="42.2920746" lon="13.500088"><ele>573.1428571428571</ele><time>2026-04-26T08:39:10.54Z</time></trkpt><trkpt lat="42.2921268" lon="13.5000227"><ele>573.5714285714286</ele><time>2026-04-26T08:39:12.583Z</time></trkpt><trkpt lat="42.2921803" lon="13.4999558"><ele>574.0</ele><time>2026-04-26T08:39:15.553Z</time></trkpt><trkpt lat="42.2922234" lon="13.4998556"><ele>573.2857142857143</ele><time>2026-04-26T08:39:18.595Z</time></trkpt><trkpt lat="42.2922615" lon="13.4997625"><ele>572.5714285714286</ele><time>2026-04-26T08:39:21.649Z</time></trkpt><trkpt lat="42.2922908" lon="13.4996823"><ele>571.8571428571429</ele><time>2026-04-26T08:39:24.56Z</time></trkpt><trkpt lat="42.2923211" lon="13.4995956"><ele>571.1428571428571</ele><time>2026-04-26T08:39:27.556Z</time></trkpt><trkpt lat="42.2923557" lon="13.4995055"><ele>570.4285714285714</ele><time>2026-04-26T08:39:30.556Z</time></trkpt><trkpt lat="42.2923966" lon="13.499418"><ele>569.7142857142858</ele><time>2026-04-26T08:39:33.586Z</time></trkpt><trkpt lat="42.2924326" lon="13.4993253"><ele>569.0</ele><time>2026-04-26T08:39:36.587Z</time></trkpt><trkpt lat="42.2924691" lon="13.4992397"><ele>569.0</ele><time>2026-04-26T08:39:39.545Z</time></trkpt><trkpt lat="42.2925079" lon="13.4991488"><ele>569.0</ele><time>2026-04-26T08:39:42.613Z</time></trkpt><trkpt lat="42.2925488" lon="13.4990642"><ele>569.0</ele><time>2026-04-26T08:39:45.607Z</time></trkpt><trkpt lat="42.2925956" lon="13.4989823"><ele>569.0</ele><time>2026-04-26T08:39:48.6Z</time></trkpt><trkpt lat="42.2926433" lon="13.4989033"><ele>569.0</ele><time>2026-04-26T08:39:51.603Z</time></trkpt><trkpt lat="42.2926934" lon="13.4988209"><ele>569.0</ele><time>2026-04-26T08:39:54.801Z</time></trkpt><trkpt lat="42.2927401" lon="13.4987515"><ele>568.8333333333333</ele><time>2026-04-26T08:39:57.194Z</time></trkpt><trkpt lat="42.2927906" lon="13.4986842"><ele>568.6666666666666</ele><time>2026-04-26T08:39:59.452Z</time></trkpt><trkpt lat="42.2928307" lon="13.4986183"><ele>568.5</ele><time>2026-04-26T08:40:01.564Z</time></trkpt><trkpt lat="42.2928937" lon="13.4985264"><ele>568.3333333333334</ele><time>2026-04-26T08:40:04.568Z</time></trkpt><trkpt lat="42.2929509" lon="13.4984436"><ele>568.1666666666667</ele><time>2026-04-26T08:40:07.602Z</time></trkpt><trkpt lat="42.2930076" lon="13.4983568"><ele>568.0</ele><time>2026-04-26T08:40:10.542Z</time></trkpt><trkpt lat="42.2930627" lon="13.4982699"><ele>568.0</ele><time>2026-04-26T08:40:13.605Z</time></trkpt><trkpt lat="42.2931249" lon="13.4981578"><ele>568.0</ele><time>2026-04-26T08:40:17.599Z</time></trkpt><trkpt lat="42.2931545" lon="13.4980666"><ele>568.0</ele><time>2026-04-26T08:40:20.578Z</time></trkpt><trkpt lat="42.293191" lon="13.4979758"><ele>568.0</ele><time>2026-04-26T08:40:23.568Z</time></trkpt><trkpt lat="42.29325" lon="13.4978966"><ele>568.0</ele><time>2026-04-26T08:40:26.6Z</time></trkpt><trkpt lat="42.2932968" lon="13.4978162"><ele>568.0</ele><time>2026-04-26T08:40:29.551Z</time></trkpt><trkpt lat="42.2933418" lon="13.4977271"><ele>568.0</ele><time>2026-04-26T08:40:32.563Z</time></trkpt><trkpt lat="42.2933893" lon="13.4976394"><ele>568.0</ele><time>2026-04-26T08:40:35.581Z</time></trkpt><trkpt lat="42.2934365" lon="13.4975569"><ele>568.0</ele><time>2026-04-26T08:40:38.611Z</time></trkpt><trkpt lat="42.2934736" lon="13.497475"><ele>568.0</ele><time>2026-04-26T08:40:41.558Z</time></trkpt><trkpt lat="42.2935191" lon="13.4973938"><ele>568.0</ele><time>2026-04-26T08:40:44.561Z</time></trkpt><trkpt lat="42.2935631" lon="13.4973091"><ele>568.0</ele><time>2026-04-26T08:40:47.558Z</time></trkpt><trkpt lat="42.2935995" lon="13.4972253"><ele>568.0</ele><time>2026-04-26T08:40:50.542Z</time></trkpt><trkpt lat="42.2936342" lon="13.4971371"><ele>568.0</ele><time>2026-04-26T08:40:53.58Z</time></trkpt><trkpt lat="42.2936667" lon="13.4970433"><ele>568.0</ele><time>2026-04-26T08:40:56.569Z</time></trkpt><trkpt lat="42.2937016" lon="13.4969439"><ele>568.0</ele><time>2026-04-26T08:40:59.704Z</time></trkpt><trkpt lat="42.2937579" lon="13.4968722"><ele>568.0</ele><time>2026-04-26T08:41:02.567Z</time></trkpt><trkpt lat="42.2938133" lon="13.4967959"><ele>568.0</ele><time>2026-04-26T08:41:05.563Z</time></trkpt><trkpt lat="42.2938629" lon="13.4967122"><ele>568.0</ele><time>2026-04-26T08:41:08.606Z</time></trkpt><trkpt lat="42.2939165" lon="13.4965875"><ele>568.0</ele><time>2026-04-26T08:41:12.578Z</time></trkpt><trkpt lat="42.2939569" lon="13.4965059"><ele>568.0</ele><time>2026-04-26T08:41:15.578Z</time></trkpt><trkpt lat="42.2939884" lon="13.4964157"><ele>568.0</ele><time>2026-04-26T08:41:18.553Z</time></trkpt><trkpt lat="42.2940233" lon="13.4963227"><ele>568.0</ele><time>2026-04-26T08:41:21.549Z</time></trkpt><trkpt lat="42.2940705" lon="13.4962378"><ele>568.0</ele><time>2026-04-26T08:41:24.599Z</time></trkpt><trkpt lat="42.2941211" lon="13.4961635"><ele>567.7142857142857</ele><time>2026-04-26T08:41:27.559Z</time></trkpt><trkpt lat="42.2941673" lon="13.496097"><ele>567.4285714285713</ele><time>2026-04-26T08:41:30.633Z</time></trkpt><trkpt lat="42.2942012" lon="13.496016"><ele>567.1428571428571</ele><time>2026-04-26T08:41:33.576Z</time></trkpt><trkpt lat="42.2942544" lon="13.495949"><ele>566.8571428571429</ele><time>2026-04-26T08:41:36.606Z</time></trkpt><trkpt lat="42.2943189" lon="13.4958843"><ele>566.5714285714287</ele><time>2026-04-26T08:41:39.596Z</time></trkpt><trkpt lat="42.2943763" lon="13.4958154"><ele>566.2857142857143</ele><time>2026-04-26T08:41:42.608Z</time></trkpt><trkpt lat="42.2944331" lon="13.4957494"><ele>566.0</ele><time>2026-04-26T08:41:45.596Z</time></trkpt><trkpt lat="42.2944888" lon="13.4956864"><ele>566.0</ele><time>2026-04-26T08:41:48.563Z</time></trkpt><trkpt lat="42.2945471" lon="13.4956176"><ele>566.0</ele><time>2026-04-26T08:41:51.661Z</time></trkpt><trkpt lat="42.2946091" lon="13.4955297"><ele>566.0</ele><time>2026-04-26T08:41:54.98Z</time></trkpt><trkpt lat="42.2946752" lon="13.4954803"><ele>566.0</ele><time>2026-04-26T08:41:57.547Z</time></trkpt><trkpt lat="42.2947347" lon="13.4954372"><ele>566.0</ele><time>2026-04-26T08:41:59.58Z</time></trkpt><trkpt lat="42.2947997" lon="13.4953682"><ele>566.0</ele><time>2026-04-26T08:42:02.559Z</time></trkpt><trkpt lat="42.2948591" lon="13.4952904"><ele>566.0</ele><time>2026-04-26T08:42:05.607Z</time></trkpt><trkpt lat="42.2949039" lon="13.4952057"><ele>566.0</ele><time>2026-04-26T08:42:08.577Z</time></trkpt><trkpt lat="42.2949481" lon="13.4951106"><ele>566.0</ele><time>2026-04-26T08:42:11.613Z</time></trkpt><trkpt lat="42.2949857" lon="13.4950174"><ele>566.0</ele><time>2026-04-26T08:42:14.605Z</time></trkpt><trkpt lat="42.2950389" lon="13.4949352"><ele>566.0</ele><time>2026-04-26T08:42:17.606Z</time></trkpt><trkpt lat="42.2950988" lon="13.494864"><ele>566.0</ele><time>2026-04-26T08:42:20.594Z</time></trkpt><trkpt lat="42.2951504" lon="13.494786"><ele>566.0</ele><time>2026-04-26T08:42:23.591Z</time></trkpt><trkpt lat="42.295187" lon="13.4947019"><ele>566.0</ele><time>2026-04-26T08:42:26.236Z</time></trkpt><trkpt lat="42.2952455" lon="13.4946429"><ele>566.0</ele><time>2026-04-26T08:42:28.555Z</time></trkpt><trkpt lat="42.2952983" lon="13.4945922"><ele>566.0</ele><time>2026-04-26T08:42:30.608Z</time></trkpt></trkseg></trk></gpx>